Time;durP1;ratioP1;P1;durP2;ratioP2;P2;SDS_P1;SDS_P2;PMS_P1;PMS_P2;Temp;Humidity;BMP_temperature;BMP_pressure;BME280_temperature;BME280_humidity;BME280_pressure;Samples;Min_cycle;Max_cycle;Signal;HPM_P1;HPM_P2
2022/03/17 00:01:43;;;;;;;68.53;27.53;;;;;;;;;;6288381;22;20165;-90
2022/03/17 00:04:48;;;;;;;63.13;27.50;;;;;;;;;;6289241;22;20214;-89
2022/03/17 00:07:53;;;;;;;61.90;26.30;;;;;;;;;;6290115;22;20169;-90
2022/03/17 00:11:00;;;;;;;65.87;28.17;;;;;;;;;;6291405;22;20165;-88
2022/03/17 00:14:05;;;;;;;61.67;28.17;;;;;;;;;;6291672;22;20213;-91
2022/03/17 00:17:10;;;;;;;69.53;28.70;;;;;;;;;;6289386;22;20240;-88
2022/03/17 00:20:16;;;;;;;62.27;27.70;;;;;;;;;;6290685;22;20150;-90
2022/03/17 00:23:22;;;;;;;67.10;28.40;;;;;;;;;;6291168;22;20158;-90
2022/03/17 00:26:29;;;;;;;63.77;28.83;;;;;;;;;;6288618;22;20186;-88
2022/03/17 00:29:34;;;;;;;70.23;30.17;;;;;;;;;;6290747;22;20177;-89
2022/03/17 00:32:40;;;;;;;67.93;29.90;;;;;;;;;;6288936;22;20185;-88
2022/03/17 00:35:46;;;;;;;72.43;29.87;;;;;;;;;;6291126;22;20170;-89
2022/03/17 00:38:50;;;;;;;69.67;30.17;;;;;;;;;;6291098;22;20189;-89
2022/03/17 00:41:58;;;;;;;61.43;27.33;;;;;;;;;;6291836;22;20243;-88
2022/03/17 00:45:03;;;;;;;60.80;27.30;;;;;;;;;;6289092;22;20153;-88
2022/03/17 00:48:08;;;;;;;67.70;28.40;;;;;;;;;;6308049;22;20222;-89
2022/03/17 00:51:13;;;;;;;65.27;28.73;;;;;;;;;;6289599;22;20157;-90
2022/03/17 00:54:18;;;;;;;58.57;25.93;;;;;;;;;;6290191;22;20613;-91
2022/03/17 01:06:12;;;;;;;61.67;26.60;;;;;;;;;;6263479;22;20537;-89
2022/03/17 01:09:20;;;;;;;63.20;26.03;;;;;;;;;;6288007;22;20237;-88
2022/03/17 01:12:25;;;;;;;61.43;24.53;;;;;;;;;;6286629;22;20684;-88
2022/03/17 01:15:30;;;;;;;60.90;24.77;;;;;;;;;;6305317;22;20683;-90
2022/03/17 01:18:35;;;;;;;63.23;26.00;;;;;;;;;;6289479;22;20309;-89
2022/03/17 01:21:42;;;;;;;53.97;24.60;;;;;;;;;;6287757;22;20285;-90
2022/03/17 01:24:47;;;;;;;59.93;24.77;;;;;;;;;;6305762;22;20160;-89
2022/03/17 01:27:53;;;;;;;61.40;26.17;;;;;;;;;;6306422;22;20502;-90
2022/03/17 01:30:57;;;;;;;64.00;27.67;;;;;;;;;;6290396;22;20154;-88
2022/03/17 01:34:03;;;;;;;64.93;27.20;;;;;;;;;;6289804;22;20232;-90
2022/03/17 01:37:09;;;;;;;69.83;29.17;;;;;;;;;;6288740;22;20222;-89
2022/03/17 01:40:15;;;;;;;64.30;28.90;;;;;;;;;;6287773;22;20177;-88
2022/03/17 01:43:20;;;;;;;67.27;28.67;;;;;;;;;;6287232;22;20162;-86
2022/03/17 01:46:25;;;;;;;71.10;30.00;;;;;;;;;;6288931;22;20172;-90
2022/03/17 01:49:30;;;;;;;66.80;28.97;;;;;;;;;;6288349;22;20174;-89
2022/03/17 01:52:36;;;;;;;65.07;29.40;;;;;;;;;;6287771;22;20276;-88
2022/03/17 01:55:41;;;;;;;68.40;29.93;;;;;;;;;;6288068;22;20145;-88
2022/03/17 01:58:46;;;;;;;67.30;29.70;;;;;;;;;;6286468;22;20236;-88
2022/03/17 02:01:52;;;;;;;61.87;28.17;;;;;;;;;;6287082;22;20170;-88
2022/03/17 02:04:57;;;;;;;69.13;30.43;;;;;;;;;;6304651;22;20189;-89
2022/03/17 02:08:05;;;;;;;68.93;29.47;;;;;;;;;;6288066;22;20154;-88
2022/03/17 02:14:35;;;;;;;69.77;30.03;;;;;;;;;;6277405;22;20201;-88
2022/03/17 02:17:40;;;;;;;64.57;28.53;;;;;;;;;;6287915;22;20174;-89
2022/03/17 02:20:46;;;;;;;67.27;29.67;;;;;;;;;;6287623;22;20168;-89
2022/03/17 02:27:16;;;;;;;76.47;32.53;;;;;;;;;;6287088;22;20194;-88
2022/03/17 02:30:23;;;;;;;73.63;31.83;;;;;;;;;;6285434;22;20166;-88
2022/03/17 02:33:28;;;;;;;70.40;31.13;;;;;;;;;;6286607;22;20174;-91
2022/03/17 02:36:33;;;;;;;65.13;28.87;;;;;;;;;;6286720;22;20173;-88
2022/03/17 02:39:40;;;;;;;72.37;31.50;;;;;;;;;;6287677;22;20283;-91
2022/03/17 02:42:45;;;;;;;71.07;30.33;;;;;;;;;;6287980;22;20771;-89
2022/03/17 02:45:50;;;;;;;67.37;29.53;;;;;;;;;;6286872;22;20173;-90
2022/03/17 02:48:54;;;;;;;73.13;30.97;;;;;;;;;;6286660;22;20240;-89
2022/03/17 02:51:59;;;;;;;72.70;31.90;;;;;;;;;;6285595;22;20188;-88
2022/03/17 02:55:08;;;;;;;71.40;30.70;;;;;;;;;;6286449;22;20193;-90
2022/03/17 02:58:13;;;;;;;74.20;32.43;;;;;;;;;;6285812;22;20189;-89
2022/03/17 03:01:17;;;;;;;75.17;33.00;;;;;;;;;;6285694;22;20494;-89
2022/03/17 03:04:22;;;;;;;71.87;31.67;;;;;;;;;;6287140;22;20169;-89
2022/03/17 03:07:27;;;;;;;68.63;31.37;;;;;;;;;;6285543;22;20166;-89
2022/03/17 03:10:34;;;;;;;72.90;32.90;;;;;;;;;;6285981;22;20170;-88
2022/03/17 03:13:39;;;;;;;76.50;32.10;;;;;;;;;;6287966;22;20168;-90
2022/03/17 03:16:43;;;;;;;72.00;30.67;;;;;;;;;;6288367;22;20170;-91
2022/03/17 03:19:48;;;;;;;67.53;30.00;;;;;;;;;;6286861;22;20198;-89
2022/03/17 03:22:53;;;;;;;75.53;30.83;;;;;;;;;;6289581;22;20166;-90
2022/03/17 03:25:59;;;;;;;78.80;33.83;;;;;;;;;;6286087;22;20617;-89
2022/03/17 03:29:05;;;;;;;71.60;31.53;;;;;;;;;;6304266;22;20192;-89
2022/03/17 03:32:10;;;;;;;70.63;32.40;;;;;;;;;;6288354;22;20204;-90
2022/03/17 03:38:38;;;;;;;76.73;33.03;;;;;;;;;;6288037;22;20266;-88
2022/03/17 03:41:44;;;;;;;71.70;30.07;;;;;;;;;;6287439;22;20216;-89
2022/03/17 03:44:49;;;;;;;74.23;31.47;;;;;;;;;;6287713;22;20169;-88
2022/03/17 03:47:54;;;;;;;69.37;31.50;;;;;;;;;;6288749;22;20169;-88
2022/03/17 03:50:59;;;;;;;75.80;32.57;;;;;;;;;;6286760;22;20184;-89
2022/03/17 03:54:19;;;;;;;69.30;30.93;;;;;;;;;;6287394;22;20181;-89
2022/03/17 03:57:25;;;;;;;76.77;32.43;;;;;;;;;;6286946;22;20173;-88
2022/03/17 04:00:34;;;;;;;75.57;33.03;;;;;;;;;;6287235;22;20173;-89
2022/03/17 04:03:44;;;;;;;72.40;31.93;;;;;;;;;;6285765;22;20161;-89
2022/03/17 04:06:50;;;;;;;67.67;31.23;;;;;;;;;;6300026;22;20193;-90
2022/03/17 04:09:55;;;;;;;73.93;31.87;;;;;;;;;;6318814;22;20617;-89
2022/03/17 04:13:02;;;;;;;77.60;32.47;;;;;;;;;;6299907;22;20173;-88
2022/03/17 04:16:07;;;;;;;71.77;30.83;;;;;;;;;;6299412;22;20166;-90
2022/03/17 04:19:12;;;;;;;78.53;31.63;;;;;;;;;;6298754;22;20274;-89
2022/03/17 04:22:17;;;;;;;74.00;32.10;;;;;;;;;;6299192;22;20203;-88
2022/03/17 04:25:22;;;;;;;75.30;31.50;;;;;;;;;;6299570;22;20169;-89
2022/03/17 04:28:29;;;;;;;67.10;31.03;;;;;;;;;;6298140;22;20166;-89
2022/03/17 04:31:34;;;;;;;71.53;31.70;;;;;;;;;;6298376;22;20215;-90
2022/03/17 04:34:39;;;;;;;71.07;30.33;;;;;;;;;;6300075;22;20164;-89
2022/03/17 04:37:44;;;;;;;71.50;31.07;;;;;;;;;;6298161;22;20192;-90
2022/03/17 04:40:49;;;;;;;76.40;31.40;;;;;;;;;;6300189;22;20165;-89
2022/03/17 04:43:56;;;;;;;77.30;31.07;;;;;;;;;;6300305;22;20169;-89
2022/03/17 04:47:01;;;;;;;75.90;31.20;;;;;;;;;;6301143;22;20160;-90
2022/03/17 04:50:06;;;;;;;70.73;30.57;;;;;;;;;;6301883;22;20269;-91
2022/03/17 04:53:32;;;;;;;67.27;29.73;;;;;;;;;;6302475;22;20169;-90
2022/03/17 04:56:36;;;;;;;73.70;32.40;;;;;;;;;;6302793;22;20188;-89
2022/03/17 04:59:43;;;;;;;70.93;29.17;;;;;;;;;;6301030;22;20227;-91
2022/03/17 05:02:51;;;;;;;70.57;30.97;;;;;;;;;;6301017;22;20153;-89
2022/03/17 05:05:56;;;;;;;74.20;32.00;;;;;;;;;;6288681;22;20268;-90
2022/03/17 05:09:01;;;;;;;75.33;31.37;;;;;;;;;;6271164;22;20161;-90
2022/03/17 05:12:09;;;;;;;78.37;33.60;;;;;;;;;;6270564;22;20181;-90
2022/03/17 05:15:16;;;;;;;80.37;32.33;;;;;;;;;;6271391;22;20170;-89
2022/03/17 05:18:21;;;;;;;69.97;31.23;;;;;;;;;;6271855;22;20162;-89
2022/03/17 05:21:26;;;;;;;85.40;34.07;;;;;;;;;;6292157;22;20213;-89
2022/03/17 05:24:32;;;;;;;74.90;32.83;;;;;;;;;;6290060;22;20170;-90
2022/03/17 05:27:40;;;;;;;77.20;32.67;;;;;;;;;;6271238;22;20207;-88
2022/03/17 05:30:47;;;;;;;84.73;33.20;;;;;;;;;;6269634;22;20177;-88
2022/03/17 05:33:52;;;;;;;75.90;31.33;;;;;;;;;;6288633;22;20185;-89
2022/03/17 05:36:57;;;;;;;80.23;32.60;;;;;;;;;;6271364;22;20181;-89
2022/03/17 05:40:04;;;;;;;73.40;31.43;;;;;;;;;;6271691;22;20275;-89
2022/03/17 05:43:11;;;;;;;86.33;33.80;;;;;;;;;;6271911;22;20165;-88
2022/03/17 05:46:17;;;;;;;83.57;33.53;;;;;;;;;;6273110;22;20170;-90
2022/03/17 05:49:22;;;;;;;88.23;33.80;;;;;;;;;;6289719;22;20169;-90
2022/03/17 05:52:29;;;;;;;76.30;32.83;;;;;;;;;;6272105;22;20153;-89
2022/03/17 05:55:34;;;;;;;106.80;36.03;;;;;;;;;;6289972;22;20567;-89
2022/03/17 05:58:39;;;;;;;93.77;35.17;;;;;;;;;;6270423;22;20215;-88
2022/03/17 06:01:46;;;;;;;86.23;32.77;;;;;;;;;;6290812;22;20170;-89
2022/03/17 06:04:51;;;;;;;89.17;32.97;;;;;;;;;;6290603;22;20289;-90
2022/03/17 06:08:00;;;;;;;79.87;32.43;;;;;;;;;;6291932;22;20154;-88
2022/03/17 06:11:06;;;;;;;88.13;32.87;;;;;;;;;;6292510;22;20189;-88
2022/03/17 06:14:12;;;;;;;76.20;32.27;;;;;;;;;;6292173;22;20174;-91
2022/03/17 06:17:19;;;;;;;74.37;30.17;;;;;;;;;;6292751;22;20257;-89
2022/03/17 06:20:26;;;;;;;83.10;34.13;;;;;;;;;;6290245;22;20193;-89
2022/03/17 06:23:31;;;;;;;84.73;35.43;;;;;;;;;;6290709;22;20162;-89
2022/03/17 06:26:36;;;;;;;83.17;33.83;;;;;;;;;;6290895;22;20613;-89
2022/03/17 06:29:41;;;;;;;83.17;33.73;;;;;;;;;;6292018;22;20484;-87
2022/03/17 06:32:48;;;;;;;92.70;33.17;;;;;;;;;;6291827;22;20170;-89
2022/03/17 06:36:01;;;;;;;67.73;29.40;;;;;;;;;;6293258;22;20174;-90
2022/03/17 06:39:06;;;;;;;72.53;30.53;;;;;;;;;;6288237;22;20154;-88
2022/03/17 06:42:11;;;;;;;70.27;29.63;;;;;;;;;;6288120;22;20165;-88
2022/03/17 06:45:17;;;;;;;73.00;30.30;;;;;;;;;;6286208;22;20170;-89
2022/03/17 06:48:23;;;;;;;76.00;30.57;;;;;;;;;;6290274;22;20177;-89
2022/03/17 06:51:30;;;;;;;66.00;28.93;;;;;;;;;;6292183;22;20169;-89
2022/03/17 06:54:35;;;;;;;74.10;30.00;;;;;;;;;;6291361;22;20157;-90
2022/03/17 06:57:40;;;;;;;82.73;31.60;;;;;;;;;;6291565;22;20165;-90
2022/03/17 07:00:46;;;;;;;69.17;29.67;;;;;;;;;;6290466;22;20272;-88
2022/03/17 07:04:08;;;;;;;73.10;30.37;;;;;;;;;;6294179;22;20173;-90
2022/03/17 07:07:17;;;;;;;72.43;29.97;;;;;;;;;;6292950;22;20212;-90
2022/03/17 07:10:23;;;;;;;74.27;30.30;;;;;;;;;;6272123;22;20221;-90
2022/03/17 07:13:28;;;;;;;67.57;28.77;;;;;;;;;;6272845;22;20158;-90
2022/03/17 07:16:33;;;;;;;68.00;29.03;;;;;;;;;;6273095;22;20218;-90
2022/03/17 07:19:43;;;;;;;75.60;30.67;;;;;;;;;;6272088;22;20206;-89
2022/03/17 07:22:50;;;;;;;76.13;28.57;;;;;;;;;;6275880;22;20216;-90
2022/03/17 07:25:57;;;;;;;63.37;28.03;;;;;;;;;;6274972;22;20212;-89
2022/03/17 07:29:03;;;;;;;60.47;27.47;;;;;;;;;;6274138;22;20162;-89
2022/03/17 07:32:10;;;;;;;58.93;26.93;;;;;;;;;;6275683;22;20157;-89
2022/03/17 07:35:15;;;;;;;66.53;27.97;;;;;;;;;;6276146;22;20166;-90
2022/03/17 07:38:23;;;;;;;65.73;28.37;;;;;;;;;;6275110;22;20165;-89
2022/03/17 07:41:29;;;;;;;59.73;26.73;;;;;;;;;;6279234;22;20244;-91
2022/03/17 07:44:37;;;;;;;65.87;28.80;;;;;;;;;;6275927;22;20246;-91
2022/03/17 07:48:18;;;;;;;64.30;28.63;;;;;;;;;;6179507;22;20282;-92
2022/03/17 07:51:37;;;;;;;66.50;27.98;;;;;;;;;;6274494;22;20170;-91
2022/03/17 07:54:45;;;;;;;59.73;27.70;;;;;;;;;;6273747;22;20170;-91
2022/03/17 07:57:50;;;;;;;65.53;28.92;;;;;;;;;;6273566;22;20170;-92
2022/03/17 08:00:56;;;;;;;71.80;28.98;;;;;;;;;;6273934;22;20258;-91
2022/03/17 08:04:01;;;;;;;61.53;26.27;;;;;;;;;;6293535;22;20170;-90
2022/03/17 08:07:06;;;;;;;59.03;26.40;;;;;;;;;;6289835;22;20293;-92
2022/03/17 08:10:15;;;;;;;58.42;26.38;;;;;;;;;;6291684;22;20196;-92
2022/03/17 08:13:22;;;;;;;50.17;24.65;;;;;;;;;;6289649;22;20169;-92
2022/03/17 08:16:27;;;;;;;55.88;24.95;;;;;;;;;;6290142;22;20165;-92
2022/03/17 08:19:32;;;;;;;58.72;25.95;;;;;;;;;;6292786;22;20178;-92
2022/03/17 08:22:38;;;;;;;53.33;24.63;;;;;;;;;;6292848;22;20165;-93
2022/03/17 08:25:44;;;;;;;60.63;24.35;;;;;;;;;;6291981;22;20273;-89
2022/03/17 08:28:50;;;;;;;93.95;24.50;;;;;;;;;;6291679;22;20170;-90
2022/03/17 08:31:55;;;;;;;49.63;21.63;;;;;;;;;;6293692;22;20185;-91
2022/03/17 08:35:01;;;;;;;48.72;21.13;;;;;;;;;;6297146;22;20157;-92
2022/03/17 08:38:06;;;;;;;44.70;20.92;;;;;;;;;;6297546;22;20311;-90
2022/03/17 08:41:14;;;;;;;43.63;21.05;;;;;;;;;;6298303;22;20262;-92
2022/03/17 08:44:19;;;;;;;40.35;20.70;;;;;;;;;;6297620;22;20190;-90
2022/03/17 08:50:48;;;;;;;36.13;17.60;;;;;;;;;;6292772;22;20170;-92
2022/03/17 08:53:52;;;;;;;31.27;15.70;;;;;;;;;;6290418;22;20166;-93
2022/03/17 08:57:00;;;;;;;26.23;11.80;;;;;;;;;;6289624;22;20508;-92
2022/03/17 09:00:06;;;;;;;23.95;11.02;;;;;;;;;;6290292;22;20343;-91
2022/03/17 09:03:12;;;;;;;29.88;13.55;;;;;;;;;;6293120;22;20165;-91
2022/03/17 09:06:17;;;;;;;24.60;11.07;;;;;;;;;;6288918;22;20190;-91
2022/03/17 09:09:23;;;;;;;50.15;21.80;;;;;;;;;;6290546;22;20239;-92
2022/03/17 09:12:30;;;;;;;30.25;11.85;;;;;;;;;;6293673;22;20160;-92
2022/03/17 09:15:36;;;;;;;29.08;10.70;;;;;;;;;;6290741;22;20250;-91
2022/03/17 09:18:42;;;;;;;22.08;9.07;;;;;;;;;;6292959;22;20208;-92
2022/03/17 09:21:48;;;;;;;15.35;7.80;;;;;;;;;;6313823;22;20193;-91
2022/03/17 09:24:52;;;;;;;21.80;8.00;;;;;;;;;;6293482;22;20209;-91
2022/03/17 09:27:59;;;;;;;20.65;8.27;;;;;;;;;;6294794;22;20169;-91
2022/03/17 09:31:04;;;;;;;22.90;8.45;;;;;;;;;;6293938;22;20216;-92
2022/03/17 09:34:11;;;;;;;22.92;7.40;;;;;;;;;;6313480;22;20219;-91
2022/03/17 09:37:17;;;;;;;15.63;6.75;;;;;;;;;;6314544;22;20173;-91
2022/03/17 09:40:23;;;;;;;17.60;6.30;;;;;;;;;;6294715;22;20190;-91
2022/03/17 09:43:31;;;;;;;19.95;7.28;;;;;;;;;;6311531;22;20229;-90
2022/03/17 09:46:39;;;;;;;22.40;6.88;;;;;;;;;;6314130;22;20178;-92
2022/03/17 09:49:46;;;;;;;15.93;6.15;;;;;;;;;;6311107;22;20594;-92
2022/03/17 09:52:51;;;;;;;18.20;6.13;;;;;;;;;;6313308;22;20161;-92
2022/03/17 09:55:57;;;;;;;16.27;6.20;;;;;;;;;;6313348;22;20185;-91
2022/03/17 09:59:06;;;;;;;14.05;5.80;;;;;;;;;;6312413;22;20221;-91
2022/03/17 10:02:16;;;;;;;17.55;5.95;;;;;;;;;;6313731;22;20173;-91
2022/03/17 10:05:21;;;;;;;23.90;6.85;;;;;;;;;;6312981;22;20204;-92
2022/03/17 10:08:26;;;;;;;11.00;5.38;;;;;;;;;;6311016;22;20217;-92
2022/03/17 10:11:37;;;;;;;12.65;5.57;;;;;;;;;;6290517;22;20173;-89
2022/03/17 10:14:44;;;;;;;17.40;5.35;;;;;;;;;;6308135;22;20213;-92
2022/03/17 10:17:49;;;;;;;14.80;5.97;;;;;;;;;;6309239;22;20232;-92
2022/03/17 10:21:11;;;;;;;12.95;5.43;;;;;;;;;;6289796;22;20189;-92
2022/03/17 10:24:19;;;;;;;17.17;5.38;;;;;;;;;;6306445;22;20165;-91
2022/03/17 10:27:37;;;;;;;17.30;5.65;;;;;;;;;;6305101;22;20230;-91
2022/03/17 10:30:44;;;;;;;12.93;5.47;;;;;;;;;;6308019;22;20149;-91
2022/03/17 10:33:54;;;;;;;10.07;5.32;;;;;;;;;;6288433;22;20225;-89
2022/03/17 10:37:10;;;;;;;14.15;5.32;;;;;;;;;;6291130;22;20169;-90
2022/03/17 10:40:16;;;;;;;11.18;5.15;;;;;;;;;;6290631;22;20258;-90
2022/03/17 10:43:23;;;;;;;20.95;6.10;;;;;;;;;;6308134;22;20169;-93
2022/03/17 10:46:31;;;;;;;14.85;6.00;;;;;;;;;;6307046;22;20174;-92
2022/03/17 10:49:36;;;;;;;20.98;7.15;;;;;;;;;;6308445;22;20165;-92
2022/03/17 10:52:49;;;;;;;15.27;7.68;;;;;;;;;;6290143;22;20166;-93
2022/03/17 10:55:55;;;;;;;17.83;6.70;;;;;;;;;;6288751;22;20169;-92
2022/03/17 10:59:02;;;;;;;24.35;11.27;;;;;;;;;;6287884;22;20238;-92
2022/03/17 11:02:09;;;;;;;24.98;11.80;;;;;;;;;;6289308;22;20193;-91
2022/03/17 11:05:15;;;;;;;28.15;11.73;;;;;;;;;;6286717;22;20205;-92
2022/03/17 11:08:20;;;;;;;22.92;11.70;;;;;;;;;;6308590;22;20199;-93
2022/03/17 11:11:26;;;;;;;29.15;11.73;;;;;;;;;;6290175;22;20165;-94
2022/03/17 11:14:31;;;;;;;24.40;12.07;;;;;;;;;;6288581;22;20189;-91
2022/03/17 11:17:40;;;;;;;25.05;12.48;;;;;;;;;;6288095;22;20216;-92
2022/03/17 11:20:45;;;;;;;31.25;13.27;;;;;;;;;;6286959;22;20213;-92
2022/03/17 11:23:55;;;;;;;25.00;12.55;;;;;;;;;;6288295;22;20230;-92
2022/03/17 11:27:08;;;;;;;28.10;12.40;;;;;;;;;;6287801;22;20169;-92
2022/03/17 11:30:14;;;;;;;23.88;12.38;;;;;;;;;;6287492;22;20508;-92
2022/03/17 11:33:24;;;;;;;28.40;12.05;;;;;;;;;;6293790;22;20223;-92
2022/03/17 11:36:31;;;;;;;25.77;13.60;;;;;;;;;;6289660;22;20173;-90
2022/03/17 21:38:57;;;;;;;28.43;13.77;;;;;;;;;;6275331;22;20213;-89
2022/03/17 21:42:05;;;;;;;35.00;14.60;;;;;;;;;;6312533;22;20176;-91
2022/03/17 21:45:12;;;;;;;31.03;14.73;;;;;;;;;;6307037;22;20239;-89
2022/03/17 21:48:20;;;;;;;28.53;13.63;;;;;;;;;;6306197;22;20223;-90
2022/03/17 21:51:26;;;;;;;31.60;14.37;;;;;;;;;;6306151;22;20169;-90
2022/03/17 21:54:33;;;;;;;35.57;13.73;;;;;;;;;;6306419;22;20172;-90
2022/03/17 21:57:40;;;;;;;30.23;14.47;;;;;;;;;;6308991;22;20208;-91
2022/03/17 22:00:45;;;;;;;29.67;13.97;;;;;;;;;;6308734;22;20245;-89
2022/03/17 22:03:51;;;;;;;30.93;14.00;;;;;;;;;;6307625;22;20240;-89
2022/03/17 22:06:58;;;;;;;34.40;13.87;;;;;;;;;;6313507;22;20189;-87
2022/03/17 22:10:16;;;;;;;34.57;14.17;;;;;;;;;;6310590;22;20161;-87
2022/03/17 22:13:22;;;;;;;35.20;13.40;;;;;;;;;;6311254;22;20184;-89
2022/03/17 22:16:29;;;;;;;30.67;14.83;;;;;;;;;;6327871;22;20189;-90
2022/03/17 22:19:34;;;;;;;33.47;13.80;;;;;;;;;;6309788;22;20169;-91
2022/03/17 22:22:41;;;;;;;29.97;13.10;;;;;;;;;;6309757;22;20197;-90
2022/03/17 22:25:51;;;;;;;33.03;13.17;;;;;;;;;;6309344;22;20188;-87
2022/03/17 22:28:56;;;;;;;30.67;14.23;;;;;;;;;;6309771;22;20177;-87
2022/03/17 22:32:04;;;;;;;33.47;13.33;;;;;;;;;;6312881;22;20214;-89
2022/03/17 22:35:10;;;;;;;27.97;12.83;;;;;;;;;;6330864;22;20191;-89
2022/03/17 22:38:16;;;;;;;33.30;12.93;;;;;;;;;;6311874;22;20204;-88
2022/03/17 22:41:33;;;;;;;27.40;12.60;;;;;;;;;;6311230;22;20181;-91
2022/03/17 22:44:40;;;;;;;27.17;13.17;;;;;;;;;;6311693;22;20169;-89
2022/03/17 22:47:47;;;;;;;27.57;13.00;;;;;;;;;;6311195;22;20248;-89
2022/03/17 22:50:53;;;;;;;27.13;13.10;;;;;;;;;;6311577;22;20169;-88
2022/03/17 22:53:58;;;;;;;33.57;14.73;;;;;;;;;;6310281;22;20169;-89
2022/03/17 22:57:06;;;;;;;36.07;13.77;;;;;;;;;;6327905;22;20168;-88
2022/03/17 23:00:25;;;;;;;31.10;13.67;;;;;;;;;;6309412;22;20168;-91
2022/03/17 23:04:03;;;;;;;30.93;13.27;;;;;;;;;;6308358;22;20255;-89
2022/03/17 23:07:09;;;;;;;27.43;13.73;;;;;;;;;;6305176;22;20234;-89
2022/03/17 23:22:01;;;;;;;28.43;12.70;;;;;;;;;;6297086;22;20210;-88
2022/03/17 23:25:06;;;;;;;37.00;15.17;;;;;;;;;;6310637;22;20243;-89
2022/03/17 23:28:12;;;;;;;29.77;13.87;;;;;;;;;;6312203;22;20184;-89
2022/03/17 23:34:32;;;;;;;35.40;14.40;;;;;;;;;;6239365;23;20221;-89
2022/03/17 23:40:36;;;;;;;32.17;13.30;;;;;;;;;;6281346;22;20210;-90
2022/03/17 23:43:43;;;;;;;26.23;12.37;;;;;;;;;;6311723;22;20227;-89
2022/03/17 23:46:49;;;;;;;27.90;12.93;;;;;;;;;;6311866;22;20200;-89
2022/03/17 23:49:57;;;;;;;29.97;14.07;;;;;;;;;;6313283;22;20149;-89
2022/03/17 23:53:05;;;;;;;28.23;13.00;;;;;;;;;;6311799;22;20196;-88
2022/03/17 23:56:12;;;;;;;30.23;13.40;;;;;;;;;;6309391;22;20165;-91
2022/03/17 23:59:17;;;;;;;28.20;13.27;;;;;;;;;;6306917;22;20616;-89
